createdAt,value
2023-05-20T00:01:52.142Z,12.05
2023-05-20T00:04:18.979Z,11.20
2023-05-20T00:06:45.873Z,14.73
2023-05-20T00:09:12.641Z,10.85
2023-05-20T00:11:39.307Z,15.82
2023-05-20T00:14:06.376Z,11.05
2023-05-20T00:16:33.254Z,12.00
2023-05-20T00:19:00.302Z,14.32
2023-05-20T00:21:27.199Z,12.13
2023-05-20T00:23:53.998Z,11.63
2023-05-20T00:26:21.552Z,9.75
2023-05-20T00:28:48.375Z,17.13
2023-05-20T00:31:15.144Z,9.35
2023-05-20T00:33:41.907Z,12.60
2023-05-20T00:36:08.890Z,12.20
2023-05-20T00:38:35.753Z,11.60
2023-05-20T00:41:02.475Z,12.15
2023-05-20T00:43:29.145Z,14.15
2023-05-20T00:45:55.999Z,11.35
2023-05-20T00:48:22.980Z,16.83
2023-05-20T00:50:50.641Z,10.38
2023-05-20T00:53:21.523Z,11.05
2023-05-20T00:55:48.526Z,8.27
2023-05-20T00:58:15.519Z,8.27
2023-05-20T01:00:43.142Z,12.82
2023-05-20T01:03:10.190Z,12.18
2023-05-20T01:05:38.165Z,8.45
2023-05-20T01:08:07.138Z,9.63
2023-05-20T01:10:37.548Z,12.38
2023-05-20T01:13:08.810Z,11.50
2023-05-20T01:15:36.804Z,7.55
2023-05-20T01:18:06.520Z,11.23
2023-05-20T01:20:33.788Z,11.07
2023-05-20T01:23:00.521Z,10.65
2023-05-20T01:25:27.453Z,10.20
2023-05-20T01:27:56.511Z,12.60
2023-05-20T01:30:28.317Z,10.10
2023-05-20T01:33:00.144Z,11.20
2023-05-20T01:35:27.799Z,8.60
2023-05-20T01:37:56.476Z,9.23
2023-05-20T01:40:24.719Z,11.77
2023-05-20T01:42:55.287Z,8.00
2023-05-20T01:45:24.667Z,10.57
2023-05-20T01:47:51.600Z,10.10
2023-05-20T01:50:18.364Z,9.40
2023-05-20T01:52:45.141Z,11.32
2023-05-20T01:55:11.896Z,11.57
2023-05-20T01:57:38.557Z,8.13
2023-05-20T02:00:07.023Z,8.82
2023-05-20T02:02:33.893Z,10.70
2023-05-20T02:05:00.849Z,9.43
2023-05-20T02:07:27.511Z,8.18
2023-05-20T02:09:54.233Z,10.90
2023-05-20T02:12:20.992Z,8.50
2023-05-20T02:14:48.184Z,9.30
2023-05-20T02:17:17.936Z,11.75
2023-05-20T02:19:46.066Z,10.02
2023-05-20T02:22:13.498Z,11.32
2023-05-20T02:24:40.640Z,8.20
2023-05-20T02:27:07.643Z,12.48
2023-05-20T02:29:34.506Z,8.27
2023-05-20T02:32:01.354Z,13.05
2023-05-20T02:34:28.345Z,12.63
2023-05-20T02:36:55.012Z,8.38
2023-05-20T02:39:21.722Z,7.63
2023-05-20T02:41:48.634Z,8.73
2023-05-20T02:44:15.586Z,8.02
2023-05-20T02:46:42.478Z,8.57
2023-05-20T02:49:09.210Z,7.95
2023-05-20T02:51:36.733Z,10.40
2023-05-20T02:54:03.863Z,8.13
2023-05-20T02:56:30.537Z,12.32
2023-05-20T02:58:57.259Z,13.57
2023-05-20T03:01:24.438Z,11.60
2023-05-20T03:03:51.450Z,10.88
2023-05-20T03:06:18.282Z,14.65
2023-05-20T03:08:44.968Z,9.27
2023-05-20T03:11:11.964Z,11.90
2023-05-20T03:13:38.707Z,8.32
2023-05-20T03:16:05.658Z,8.45
2023-05-20T03:18:32.382Z,11.70
2023-05-20T03:20:59.096Z,10.23
2023-05-20T03:23:26.068Z,8.27
2023-05-20T03:25:52.847Z,10.20
2023-05-20T03:28:19.576Z,11.43
2023-05-20T03:30:46.469Z,7.78
2023-05-20T03:33:13.253Z,11.50
2023-05-20T03:35:39.923Z,11.23
2023-05-20T03:38:06.753Z,15.00
2023-05-20T03:40:33.610Z,14.77
2023-05-20T03:43:00.452Z,9.95
2023-05-20T03:45:27.176Z,12.57
2023-05-20T03:47:53.905Z,12.98
2023-05-20T03:50:20.632Z,11.57
2023-05-20T03:52:47.436Z,11.13
2023-05-20T03:55:14.155Z,12.25
2023-05-20T03:57:40.872Z,10.98
2023-05-20T04:00:14.627Z,17.30
2023-05-20T04:02:41.781Z,14.73
2023-05-20T04:05:10.332Z,13.05
2023-05-20T04:07:37.133Z,14.00
2023-05-20T04:10:04.899Z,10.30
2023-05-20T04:12:32.565Z,10.43
2023-05-20T04:15:02.397Z,10.23
2023-05-20T04:17:30.321Z,15.20
2023-05-20T04:20:00.129Z,15.57
2023-05-20T04:22:27.533Z,21.55
2023-05-20T04:24:54.372Z,13.27
2023-05-20T04:27:21.723Z,11.10
2023-05-20T04:29:48.658Z,10.23
2023-05-20T04:32:18.850Z,14.10
2023-05-20T04:34:46.421Z,13.55
2023-05-20T04:37:14.003Z,20.25
2023-05-20T04:39:40.785Z,10.60
2023-05-20T04:42:07.524Z,11.73
2023-05-20T04:44:34.546Z,10.13
2023-05-20T04:47:01.240Z,13.15
2023-05-20T04:49:29.996Z,15.10
2023-05-20T04:51:56.787Z,14.38
2023-05-20T04:54:23.477Z,11.13
2023-05-20T04:56:51.094Z,10.80
2023-05-20T04:59:18.135Z,14.88
2023-05-20T05:01:44.940Z,10.00
2023-05-20T05:04:11.753Z,9.68
2023-05-20T05:06:38.552Z,9.35
2023-05-20T05:09:05.390Z,18.42
2023-05-20T05:11:32.069Z,12.75
2023-05-20T05:13:58.785Z,15.93
2023-05-20T05:16:25.699Z,10.40
2023-05-20T05:18:52.496Z,11.43
2023-05-20T05:21:19.219Z,14.40
2023-05-20T05:23:46.105Z,11.88
2023-05-20T05:26:12.797Z,14.48
2023-05-20T05:28:42.667Z,12.30
2023-05-20T05:31:09.698Z,13.77
2023-05-20T05:33:36.471Z,13.02
2023-05-20T05:36:05.012Z,17.20
2023-05-20T05:38:31.717Z,17.40
2023-05-20T05:40:58.357Z,15.60
2023-05-20T05:43:25.129Z,13.43
2023-05-20T05:45:51.872Z,13.65
2023-05-20T05:48:18.634Z,13.88
2023-05-20T05:50:46.453Z,15.57
2023-05-20T05:53:13.386Z,13.60
2023-05-20T05:55:40.182Z,13.75
2023-05-20T05:58:07.166Z,13.98
2023-05-20T06:00:34.250Z,16.58
2023-05-20T06:03:01.553Z,13.70
2023-05-20T06:05:29.797Z,14.57
2023-05-20T06:07:56.752Z,13.98
2023-05-20T06:10:23.862Z,12.63
2023-05-20T06:12:50.687Z,13.50
2023-05-20T06:15:17.438Z,13.63
2023-05-20T06:17:44.376Z,12.52
2023-05-20T06:20:11.810Z,11.20
2023-05-20T06:22:38.562Z,10.40
2023-05-20T06:25:06.384Z,13.23
2023-05-20T06:27:33.445Z,12.85
2023-05-20T06:30:00.290Z,15.75
2023-05-20T06:32:27.713Z,13.63
2023-05-20T06:34:54.444Z,13.93
2023-05-20T06:37:24.414Z,12.55
2023-05-20T06:39:54.072Z,11.63
2023-05-20T06:42:21.657Z,10.02
2023-05-20T06:44:48.455Z,16.73
2023-05-20T06:47:16.816Z,14.68
2023-05-20T06:49:47.652Z,12.57
2023-05-20T06:52:14.658Z,10.95
2023-05-20T06:54:41.825Z,10.30
2023-05-20T06:57:09.240Z,12.18
2023-05-20T06:59:36.864Z,12.82
2023-05-20T07:02:04.745Z,12.85
2023-05-20T07:04:31.527Z,12.77
2023-05-20T07:06:58.184Z,11.10
2023-05-20T07:09:24.896Z,13.45
2023-05-20T07:11:51.799Z,11.73
2023-05-20T07:14:18.575Z,14.30
2023-05-20T07:16:45.441Z,12.45
2023-05-20T07:19:12.260Z,11.98
2023-05-20T07:21:39.126Z,13.05
2023-05-20T07:24:06.008Z,14.80
2023-05-20T07:26:36.423Z,11.48
2023-05-20T07:29:04.527Z,14.23
2023-05-20T07:31:31.596Z,14.95
2023-05-20T07:33:58.658Z,13.15
2023-05-20T07:36:27.735Z,11.43
2023-05-20T07:39:02.460Z,13.07
2023-05-20T07:41:32.121Z,13.48
2023-05-20T07:43:58.784Z,14.98
2023-05-20T07:46:25.566Z,12.70
2023-05-20T07:48:52.382Z,20.65
2023-05-20T07:51:19.138Z,14.60
2023-05-20T07:53:45.895Z,12.30
2023-05-20T07:56:12.669Z,14.00
2023-05-20T07:58:42.697Z,22.00
2023-05-20T08:01:10.299Z,16.17
2023-05-20T08:03:37.113Z,19.42
2023-05-20T08:06:04.180Z,14.70
2023-05-20T08:08:30.896Z,14.15
2023-05-20T08:10:57.575Z,16.20
2023-05-20T08:13:25.644Z,13.20
2023-05-20T08:15:54.772Z,15.65
2023-05-20T08:18:21.553Z,14.02
2023-05-20T08:20:48.573Z,17.27
2023-05-20T08:23:15.241Z,15.20
2023-05-20T08:25:41.948Z,21.70
2023-05-20T08:28:08.840Z,13.50
2023-05-20T08:30:35.551Z,17.48
2023-05-20T08:33:02.577Z,11.90
2023-05-20T08:35:29.421Z,13.35
2023-05-20T08:37:56.278Z,17.98
2023-05-20T08:40:23.096Z,18.02
2023-05-20T08:42:53.002Z,17.50
2023-05-20T08:45:21.750Z,18.00
2023-05-20T08:47:48.591Z,16.08
2023-05-20T08:50:17.113Z,18.60
2023-05-20T08:52:46.439Z,14.43
2023-05-20T08:55:23.029Z,15.25
2023-05-20T08:57:51.496Z,11.63
2023-05-20T09:00:20.168Z,17.40
2023-05-20T09:02:47.431Z,15.40
2023-05-20T09:05:14.768Z,18.48
2023-05-20T09:07:43.328Z,15.23
2023-05-20T09:10:10.917Z,20.73
2023-05-20T09:12:38.742Z,21.00
2023-05-20T09:15:05.898Z,23.48
2023-05-20T09:17:37.313Z,16.85
2023-05-20T09:20:09.141Z,19.92
2023-05-20T09:22:35.846Z,16.63
2023-05-20T09:25:02.627Z,15.95
2023-05-20T09:27:29.300Z,13.50
2023-05-20T09:29:55.947Z,19.25
2023-05-20T09:32:28.473Z,21.05
2023-05-20T09:34:55.265Z,17.33
2023-05-20T09:37:22.734Z,15.27
2023-05-20T09:39:59.728Z,15.73
2023-05-20T09:42:42.456Z,16.75
2023-05-20T09:45:09.651Z,14.68
2023-05-20T09:47:42.695Z,16.13
2023-05-20T09:50:10.358Z,17.60
2023-05-20T09:52:38.749Z,18.80
2023-05-20T09:55:10.551Z,18.52
2023-05-20T09:57:38.093Z,22.85
2023-05-20T10:00:06.446Z,16.27
2023-05-20T10:02:36.707Z,16.83
2023-05-20T10:05:08.015Z,12.70
2023-05-20T10:07:44.171Z,15.32
2023-05-20T10:10:20.488Z,16.30
2023-05-20T10:13:03.652Z,18.42
2023-05-20T10:16:08.921Z,18.48
2023-05-20T10:18:50.842Z,18.63
2023-05-20T10:21:19.268Z,17.35
2023-05-20T10:23:46.098Z,16.08
2023-05-20T10:26:12.844Z,15.00
2023-05-20T10:28:41.790Z,15.60
2023-05-20T10:31:21.794Z,14.85
2023-05-20T10:33:49.734Z,14.40
2023-05-20T10:36:30.825Z,16.23
2023-05-20T10:39:00.840Z,13.25
2023-05-20T10:41:44.672Z,15.85
2023-05-20T10:44:11.752Z,11.85
2023-05-20T10:46:59.940Z,16.98
2023-05-20T10:49:34.717Z,19.73
2023-05-20T10:52:01.505Z,13.70
2023-05-20T10:54:29.502Z,15.95
2023-05-20T10:56:56.442Z,17.15
2023-05-20T10:59:23.393Z,17.80
2023-05-20T11:01:51.186Z,20.67
2023-05-20T11:04:19.963Z,17.05
2023-05-20T11:06:54.316Z,14.90
2023-05-20T11:09:22.377Z,17.45
2023-05-20T11:11:54.446Z,17.83
2023-05-20T11:14:22.200Z,14.27
2023-05-20T11:16:53.607Z,21.98
2023-05-20T11:19:21.587Z,17.13
2023-05-20T11:21:49.214Z,14.98
2023-05-20T11:24:27.056Z,14.73
2023-05-20T11:26:57.588Z,18.40
2023-05-20T11:29:26.884Z,14.30
2023-05-20T11:31:53.759Z,19.45
2023-05-20T11:34:25.979Z,15.70
2023-05-20T11:39:27.610Z,13.55
2023-05-20T11:41:54.458Z,11.98
2023-05-20T11:44:21.618Z,21.25
2023-05-20T11:46:48.714Z,16.15
2023-05-20T11:49:16.782Z,18.80
2023-05-20T11:51:44.416Z,17.48
2023-05-20T11:54:11.452Z,16.90
2023-05-20T11:56:39.244Z,21.90
2023-05-20T11:59:07.230Z,21.67
2023-05-20T12:01:43.532Z,16.45
2023-05-20T12:04:12.106Z,21.15
2023-05-20T12:06:39.828Z,18.65
2023-05-20T12:09:08.630Z,19.40
2023-05-20T12:11:37.460Z,17.95
2023-05-20T12:14:04.713Z,15.90
2023-05-20T12:16:33.604Z,19.90
2023-05-20T12:19:01.299Z,14.70
2023-05-20T12:21:31.618Z,22.55
2023-05-20T12:24:01.846Z,19.85
2023-05-20T12:26:29.856Z,13.95
2023-05-20T12:28:57.719Z,18.17
2023-05-20T12:31:25.394Z,19.05
2023-05-20T12:33:52.332Z,19.10
2023-05-20T12:36:19.876Z,23.80
2023-05-20T12:38:47.202Z,17.27
2023-05-20T12:41:14.153Z,23.58
2023-05-20T12:43:40.873Z,18.77
2023-05-20T12:46:07.677Z,22.52
2023-05-20T12:48:34.425Z,19.23
2023-05-20T12:51:01.569Z,18.25
2023-05-20T12:53:31.966Z,22.02
2023-05-20T12:55:58.798Z,17.90
2023-05-20T12:58:25.462Z,24.42
2023-05-20T13:00:52.335Z,16.58
2023-05-20T13:03:19.297Z,18.17
2023-05-20T13:05:46.241Z,18.25
2023-05-20T13:08:14.997Z,17.38
2023-05-20T13:10:42.345Z,18.05
2023-05-20T13:13:09.163Z,22.35
2023-05-20T13:15:36.972Z,18.60
2023-05-20T13:18:06.066Z,23.35
2023-05-20T13:20:33.041Z,17.63
2023-05-20T13:22:59.947Z,13.52
2023-05-20T13:25:26.789Z,16.33
2023-05-20T13:27:53.465Z,20.67
2023-05-20T13:30:20.278Z,20.92
2023-05-20T13:32:47.045Z,18.63
2023-05-20T13:35:14.742Z,18.67
2023-05-20T13:37:41.742Z,20.75
2023-05-20T13:40:09.362Z,20.35
2023-05-20T13:42:36.171Z,22.05
2023-05-20T13:45:03.002Z,16.05
2023-05-20T13:47:29.821Z,22.17
2023-05-20T13:49:56.931Z,15.30
2023-05-20T13:52:23.761Z,21.70
2023-05-20T13:54:50.478Z,22.17
2023-05-20T13:57:17.310Z,15.65
2023-05-20T13:59:44.440Z,22.45
2023-05-20T14:02:11.673Z,20.20
2023-05-20T14:04:40.278Z,17.08
2023-05-20T14:07:09.618Z,18.08
2023-05-20T14:09:36.858Z,17.17
2023-05-20T14:12:04.220Z,20.20
2023-05-20T14:14:31.043Z,15.18
2023-05-20T14:16:58.013Z,20.00
2023-05-20T14:19:25.090Z,15.90
2023-05-20T14:21:51.916Z,15.30
2023-05-20T14:24:18.567Z,17.30
2023-05-20T14:26:45.239Z,19.75
2023-05-20T14:29:12.026Z,17.08
2023-05-20T14:31:39.394Z,22.02
2023-05-20T14:34:07.397Z,30.60
2023-05-20T14:36:34.397Z,25.35
2023-05-20T14:39:01.080Z,24.45
2023-05-20T14:41:27.796Z,26.88
2023-05-20T14:43:54.560Z,21.40
2023-05-20T14:46:21.733Z,23.42
2023-05-20T14:48:48.429Z,25.10
2023-05-20T14:51:15.179Z,26.02
2023-05-20T14:53:42.279Z,20.98
2023-05-20T14:56:08.972Z,22.08
2023-05-20T14:58:36.099Z,15.82
2023-05-20T15:01:02.901Z,25.00
2023-05-20T15:03:30.042Z,21.05
2023-05-20T15:05:56.921Z,18.40
2023-05-20T15:08:23.593Z,24.25
2023-05-20T15:10:50.797Z,23.75
2023-05-20T15:13:17.574Z,20.10
2023-05-20T15:15:44.896Z,20.25
2023-05-20T15:18:11.796Z,16.85
2023-05-20T15:20:38.565Z,20.63
2023-05-20T15:23:05.428Z,19.42
2023-05-20T15:25:32.129Z,28.55
2023-05-20T15:27:58.864Z,22.10
2023-05-20T15:30:25.674Z,23.92
2023-05-20T15:32:52.447Z,20.58
2023-05-20T15:35:19.653Z,20.05
2023-05-20T15:37:46.333Z,19.48
2023-05-20T15:40:13.112Z,18.08
2023-05-20T15:42:39.842Z,24.02
2023-05-20T15:45:07.415Z,18.27
2023-05-20T15:47:34.307Z,18.05
2023-05-20T15:50:02.964Z,16.05
2023-05-20T15:52:29.692Z,17.48
2023-05-20T15:54:56.828Z,16.70
2023-05-20T15:57:23.590Z,21.80
2023-05-20T15:59:50.265Z,34.20
2023-05-20T16:02:17.045Z,19.77
2023-05-20T16:04:43.780Z,23.35
2023-05-20T16:07:10.657Z,20.80
2023-05-20T16:09:37.354Z,22.35
2023-05-20T16:12:04.674Z,21.52
2023-05-20T16:14:31.337Z,17.48
2023-05-20T16:16:58.108Z,26.60
2023-05-20T16:19:24.911Z,18.33
2023-05-20T16:21:51.682Z,20.52
2023-05-20T16:24:18.459Z,23.75
2023-05-20T16:26:45.268Z,23.17
2023-05-20T16:29:12.078Z,20.35
2023-05-20T16:31:39.551Z,21.55
2023-05-20T16:34:07.288Z,19.98
2023-05-20T16:36:34.729Z,22.80
2023-05-20T16:39:01.637Z,19.42
2023-05-20T16:41:28.486Z,22.60
2023-05-20T16:43:55.144Z,16.98
2023-05-20T16:46:22.023Z,19.05
2023-05-20T16:48:48.786Z,26.40
2023-05-20T16:51:15.470Z,22.20
2023-05-20T16:53:42.273Z,23.90
2023-05-20T16:56:09.144Z,25.33
2023-05-20T16:58:35.855Z,20.77
2023-05-20T17:01:02.676Z,20.33
2023-05-20T17:03:29.427Z,23.95
2023-05-20T17:05:56.150Z,19.38
2023-05-20T17:08:23.018Z,20.77
2023-05-20T17:10:51.351Z,24.13
2023-05-20T17:13:19.972Z,21.88
2023-05-20T17:15:46.677Z,19.75
2023-05-20T17:18:13.513Z,22.55
2023-05-20T17:20:40.266Z,23.20
2023-05-20T17:23:07.063Z,20.42
2023-05-20T17:25:33.864Z,23.60
2023-05-20T17:28:00.661Z,23.77
2023-05-20T17:30:27.469Z,21.42
2023-05-20T17:32:55.117Z,26.40
2023-05-20T17:35:25.567Z,17.25
2023-05-20T17:37:53.651Z,22.30
2023-05-20T17:40:20.967Z,18.10
2023-05-20T17:42:50.315Z,23.10
2023-05-20T17:45:17.097Z,20.08
2023-05-20T17:47:43.848Z,27.42
2023-05-20T17:50:11.193Z,26.67
2023-05-20T17:52:37.938Z,24.17
2023-05-20T17:55:05.031Z,24.35
2023-05-20T17:57:31.742Z,19.40
2023-05-20T17:59:58.425Z,29.83
2023-05-20T18:02:25.224Z,17.83
2023-05-20T18:04:52.359Z,21.25
2023-05-20T18:07:19.205Z,21.90
2023-05-20T18:09:46.072Z,28.05
2023-05-20T18:12:12.770Z,21.75
2023-05-20T18:14:39.503Z,24.35
2023-05-20T18:17:06.227Z,22.75
2023-05-20T18:19:33.890Z,25.80
2023-05-20T18:22:01.156Z,17.10
2023-05-20T18:24:27.840Z,19.77
2023-05-20T18:26:54.545Z,18.50
2023-05-20T18:29:23.400Z,22.27
2023-05-20T18:31:50.286Z,19.33
2023-05-20T18:34:17.022Z,17.77
2023-05-20T18:36:43.805Z,20.30
2023-05-20T18:39:14.097Z,24.67
2023-05-20T18:44:13.508Z,23.75
2023-05-20T18:46:40.264Z,22.13
2023-05-20T18:49:06.947Z,19.55
2023-05-20T18:51:33.922Z,26.77
2023-05-20T18:54:00.700Z,17.73
2023-05-20T18:56:27.642Z,25.55
2023-05-20T18:58:54.463Z,16.55
2023-05-20T19:01:22.041Z,18.85
2023-05-20T19:03:48.754Z,29.95
2023-05-20T19:06:16.612Z,24.88
2023-05-20T19:08:43.992Z,18.20
2023-05-20T19:11:11.113Z,18.02
2023-05-20T19:13:37.881Z,16.40
2023-05-20T19:16:04.812Z,15.70
2023-05-20T19:18:31.626Z,20.98
2023-05-20T19:20:58.316Z,16.40
2023-05-20T19:23:25.009Z,18.98
2023-05-20T19:25:51.736Z,27.10
2023-05-20T19:28:18.685Z,16.27
2023-05-20T19:30:45.664Z,17.92
2023-05-20T19:33:12.446Z,21.42
2023-05-20T19:35:40.426Z,21.52
2023-05-20T19:38:07.370Z,14.60
2023-05-20T19:40:35.360Z,21.08
2023-05-20T19:43:04.953Z,17.50
2023-05-20T19:45:34.736Z,16.38
2023-05-20T19:48:02.585Z,14.57
2023-05-20T19:50:29.386Z,16.75
2023-05-20T19:52:56.319Z,14.73
2023-05-20T19:55:23.122Z,19.45
2023-05-20T19:57:53.410Z,17.35
2023-05-20T20:00:23.549Z,27.60
2023-05-20T20:02:50.407Z,17.92
2023-05-20T20:05:17.309Z,17.17
2023-05-20T20:07:44.032Z,16.13
2023-05-20T20:10:11.132Z,16.92
2023-05-20T20:12:37.814Z,18.73
2023-05-20T20:15:05.108Z,22.92
2023-05-20T20:17:33.908Z,13.90
2023-05-20T20:20:01.193Z,16.95
2023-05-20T20:22:28.089Z,12.80
2023-05-20T20:24:54.851Z,13.80
2023-05-20T20:27:23.804Z,18.42
2023-05-20T20:29:50.733Z,14.02
2023-05-20T20:32:17.527Z,17.33
2023-05-20T20:34:45.984Z,17.50
2023-05-20T20:37:15.069Z,17.30
2023-05-20T20:39:42.209Z,22.60
2023-05-20T20:42:09.002Z,15.55
2023-05-20T20:44:35.764Z,16.80
2023-05-20T20:47:04.261Z,19.00
2023-05-20T20:49:32.279Z,17.90
2023-05-20T20:51:59.226Z,19.65
2023-05-20T20:54:26.551Z,12.00
2023-05-20T20:56:56.758Z,20.60
2023-05-20T20:59:26.757Z,19.77
2023-05-20T21:01:54.186Z,24.42
2023-05-20T21:04:21.085Z,14.52
2023-05-20T21:06:47.918Z,14.75
2023-05-20T21:09:15.132Z,16.88
2023-05-20T21:11:42.406Z,21.38
2023-05-20T21:14:10.338Z,16.38
2023-05-20T21:16:37.882Z,17.33
2023-05-20T21:19:05.104Z,14.40
2023-05-20T21:21:32.467Z,22.50
2023-05-20T21:23:59.253Z,20.60
2023-05-20T21:26:26.672Z,15.20
2023-05-20T21:28:53.491Z,18.02
2023-05-20T21:31:20.324Z,16.50
2023-05-20T21:33:47.196Z,19.83
2023-05-20T21:36:13.949Z,14.70
2023-05-20T21:38:40.635Z,18.33
2023-05-20T21:41:07.940Z,16.95
2023-05-20T21:43:36.089Z,20.88
2023-05-20T21:46:03.253Z,18.48
2023-05-20T21:48:29.989Z,18.15
2023-05-20T21:50:56.745Z,22.05
2023-05-20T21:53:23.391Z,21.67
2023-05-20T21:55:50.160Z,16.77
2023-05-20T21:58:16.898Z,13.55
2023-05-20T22:00:43.624Z,14.95
2023-05-20T22:03:11.940Z,22.70
2023-05-20T22:05:38.782Z,15.93
2023-05-20T22:08:05.796Z,15.32
2023-05-20T22:10:34.210Z,18.55
2023-05-20T22:13:02.243Z,14.63
2023-05-20T22:15:29.170Z,19.75
2023-05-20T22:17:55.979Z,13.57
2023-05-20T22:20:22.891Z,18.35
2023-05-20T22:22:49.635Z,22.08
2023-05-20T22:25:17.407Z,14.77
2023-05-20T22:27:44.207Z,15.88
2023-05-20T22:30:12.369Z,15.90
2023-05-20T22:32:39.393Z,17.35
2023-05-20T22:35:06.860Z,19.60
2023-05-20T22:37:33.635Z,19.00
2023-05-20T22:40:00.681Z,18.33
2023-05-20T22:42:27.427Z,16.77
2023-05-20T22:44:54.078Z,16.77
2023-05-20T22:47:20.784Z,13.57
2023-05-20T22:49:47.514Z,16.00
2023-05-20T22:52:14.573Z,18.27
2023-05-20T22:54:41.331Z,22.67
2023-05-20T22:57:08.426Z,20.00
2023-05-20T22:59:36.692Z,12.20
2023-05-20T23:02:04.540Z,16.88
2023-05-20T23:04:31.379Z,16.23
2023-05-20T23:06:59.451Z,17.60
2023-05-20T23:09:26.533Z,15.00
2023-05-20T23:11:53.352Z,20.25
2023-05-20T23:14:20.259Z,20.02
2023-05-20T23:16:47.324Z,15.25
2023-05-20T23:19:14.307Z,16.83
2023-05-20T23:21:41.139Z,14.38
2023-05-20T23:24:07.865Z,11.73
2023-05-20T23:26:34.666Z,14.40
2023-05-20T23:29:01.637Z,13.80
2023-05-20T23:31:29.991Z,13.45
2023-05-20T23:33:59.903Z,13.38
2023-05-20T23:36:29.170Z,17.95
2023-05-20T23:38:56.492Z,14.23
2023-05-20T23:41:23.818Z,17.05
2023-05-20T23:43:50.875Z,14.50
2023-05-20T23:46:18.712Z,16.55
2023-05-20T23:48:48.359Z,13.30
2023-05-20T23:51:16.447Z,15.15
2023-05-20T23:53:43.865Z,18.27
2023-05-20T23:56:10.667Z,13.95
2023-05-20T23:58:37.442Z,12.95
